Time;durP1;ratioP1;P1;durP2;ratioP2;P2;SDS_P1;SDS_P2;PMS_P1;PMS_P2;Temp;Humidity;BMP_temperature;BMP_pressure;BME280_temperature;BME280_humidity;BME280_pressure;Samples;Min_cycle;Max_cycle;Signal;HPM_P1;HPM_P2
2024/01/15 00:02:19;;;;;;;59.03;35.60;;;;;;;-0.37;100.00;100295.53;5084543;28;20055;-84
2024/01/15 00:04:44;;;;;;;64.20;36.92;;;;;;;-0.40;100.00;100293.69;5081246;28;20111;-80
2024/01/15 00:07:10;;;;;;;59.85;34.95;;;;;;;-0.40;100.00;100298.88;5083279;28;20031;-80
2024/01/15 00:09:35;;;;;;;62.22;35.08;;;;;;;-0.43;100.00;100295.28;5081071;28;20039;-80
2024/01/15 00:12:01;;;;;;;60.20;34.47;;;;;;;-0.44;100.00;100288.31;5082870;28;20104;-80
2024/01/15 00:14:27;;;;;;;59.55;35.40;;;;;;;-0.43;100.00;100287.50;5083439;28;20028;-82
2024/01/15 00:16:54;;;;;;;57.85;35.00;;;;;;;-0.44;100.00;100284.00;5081609;28;20051;-82
2024/01/15 00:19:21;;;;;;;63.72;35.65;;;;;;;-0.46;100.00;100275.28;5084410;28;20032;-82
2024/01/15 00:21:46;;;;;;;61.72;35.20;;;;;;;-0.49;100.00;100264.75;5081698;28;20036;-83
2024/01/15 00:24:12;;;;;;;60.58;34.55;;;;;;;-0.51;100.00;100278.50;5083057;28;20028;-81
2024/01/15 00:26:37;;;;;;;58.38;33.72;;;;;;;-0.53;100.00;100279.31;5081879;28;20103;-80
2024/01/15 00:29:03;;;;;;;57.80;33.22;;;;;;;-0.53;100.00;100275.84;5083142;28;20044;-80
2024/01/15 00:31:29;;;;;;;56.78;33.03;;;;;;;-0.61;100.00;100272.03;5084697;28;20035;-80
2024/01/15 00:33:55;;;;;;;55.20;31.42;;;;;;;-0.63;100.00;100276.31;5084138;28;20421;-82
2024/01/15 00:36:21;;;;;;;50.40;30.08;;;;;;;-0.59;100.00;100265.22;5081060;28;20025;-82
2024/01/15 00:38:47;;;;;;;52.17;29.17;;;;;;;-0.56;100.00;100265.34;5084507;28;20036;-80
2024/01/15 00:41:13;;;;;;;45.53;26.23;;;;;;;-0.52;100.00;100259.44;5079969;28;20032;-82
2024/01/15 00:43:38;;;;;;;46.58;26.90;;;;;;;-0.54;100.00;100250.69;5085682;28;20437;-82
2024/01/15 00:46:04;;;;;;;46.88;25.73;;;;;;;-0.56;100.00;100252.34;5085737;28;20085;-75
2024/01/15 00:48:29;;;;;;;44.53;24.85;;;;;;;-0.56;100.00;100244.56;5086076;28;20207;-74
2024/01/15 00:50:55;;;;;;;41.90;23.70;;;;;;;-0.59;100.00;100247.03;5085685;28;20028;-78
2024/01/15 00:53:22;;;;;;;38.67;20.80;;;;;;;-0.58;100.00;100243.63;5084520;28;20098;-78
2024/01/15 00:55:48;;;;;;;38.42;20.25;;;;;;;-0.58;100.00;100233.25;5088075;28;20028;-76
2024/01/15 00:58:13;;;;;;;35.90;18.83;;;;;;;-0.55;100.00;100244.63;5082957;28;20053;-76
2024/01/15 01:00:39;;;;;;;35.90;17.85;;;;;;;-0.50;100.00;100231.81;5086505;28;20094;-76
2024/01/15 01:03:04;;;;;;;33.00;16.60;;;;;;;-0.50;100.00;100234.41;5084596;28;20394;-74
2024/01/15 01:05:30;;;;;;;28.02;12.95;;;;;;;-0.49;100.00;100237.91;5085473;28;20039;-74
2024/01/15 01:07:55;;;;;;;26.75;10.80;;;;;;;-0.48;100.00;100232.78;5086716;28;20031;-76
2024/01/15 01:10:20;;;;;;;28.27;10.23;;;;;;;-0.48;100.00;100230.19;5084333;28;20029;-75
2024/01/15 01:12:45;;;;;;;22.08;7.30;;;;;;;-0.47;100.00;100234.53;5087394;28;20102;-75
2024/01/15 01:15:11;;;;;;;20.95;6.00;;;;;;;-0.48;100.00;100235.38;5083238;28;20024;-75
2024/01/15 01:17:36;;;;;;;19.38;5.32;;;;;;;-0.50;100.00;100234.41;5086134;28;20432;-80
2024/01/15 01:20:04;;;;;;;17.48;4.70;;;;;;;-0.49;100.00;100228.41;5084258;28;20421;-74
2024/01/15 01:22:30;;;;;;;18.13;4.70;;;;;;;-0.50;100.00;100231.81;5085362;28;20024;-76
2024/01/15 01:24:55;;;;;;;19.83;4.70;;;;;;;-0.49;100.00;100219.75;5085149;28;20115;-75
2024/01/15 01:27:21;;;;;;;19.95;4.70;;;;;;;-0.54;100.00;100219.53;5083878;28;20052;-74
2024/01/15 01:29:46;;;;;;;18.30;4.57;;;;;;;-0.56;100.00;100231.59;5087533;28;20028;-75
2024/01/15 01:32:12;;;;;;;18.58;4.72;;;;;;;-0.55;100.00;100217.78;5083817;28;20035;-76
2024/01/15 01:34:42;;;;;;;19.08;4.63;;;;;;;-0.62;100.00;100226.16;5086051;28;20033;-75
2024/01/15 01:37:08;;;;;;;18.33;4.50;;;;;;;-0.68;100.00;100225.88;5084563;28;20058;-74
2024/01/15 01:39:33;;;;;;;19.85;5.30;;;;;;;-0.65;100.00;100231.22;5085488;28;20068;-75
2024/01/15 01:41:58;;;;;;;19.48;4.80;;;;;;;-0.64;100.00;100232.97;5085588;28;20028;-74
2024/01/15 01:44:24;;;;;;;19.45;4.70;;;;;;;-0.59;100.00;100232.34;5083068;28;20028;-74
2024/01/15 01:46:49;;;;;;;19.77;4.93;;;;;;;-0.55;100.00;100229.03;5087014;28;20057;-78
2024/01/15 01:49:15;;;;;;;19.15;5.00;;;;;;;-0.57;100.00;100230.72;5078139;28;20024;-75
2024/01/15 01:51:41;;;;;;;18.85;5.00;;;;;;;-0.60;100.00;100224.50;5086406;28;20043;-82
2024/01/15 01:54:07;;;;;;;19.77;4.88;;;;;;;-0.68;100.00;100226.78;5084178;28;20382;-80
2024/01/15 01:56:33;;;;;;;19.83;5.05;;;;;;;-0.64;100.00;100232.97;5085140;28;20105;-80
2024/01/15 01:59:00;;;;;;;18.67;5.20;;;;;;;-0.63;100.00;100232.16;5085863;28;20123;-81
2024/01/15 02:01:26;;;;;;;20.17;5.00;;;;;;;-0.65;100.00;100231.22;5083653;28;20060;-79
2024/01/15 02:03:51;;;;;;;19.40;5.30;;;;;;;-0.67;100.00;100225.06;5086223;28;20043;-80
2024/01/15 02:06:18;;;;;;;20.70;5.20;;;;;;;-0.71;100.00;100232.75;5083901;28;20021;-74
2024/01/15 02:08:44;;;;;;;19.25;5.40;;;;;;;-0.68;100.00;100220.69;5085287;28;20032;-80
2024/01/15 02:11:09;;;;;;;19.63;5.13;;;;;;;-0.71;100.00;100226.69;5082504;28;20043;-77
2024/01/15 02:13:35;;;;;;;20.58;5.15;;;;;;;-0.73;100.00;100231.81;5085312;28;20025;-79
2024/01/15 02:16:00;;;;;;;21.13;5.13;;;;;;;-0.77;100.00;100232.50;5066674;28;20123;-79
2024/01/15 02:18:26;;;;;;;19.98;4.72;;;;;;;-0.72;100.00;100225.78;5083769;28;20430;-81
2024/01/15 02:20:51;;;;;;;20.20;4.88;;;;;;;-0.71;100.00;100230.16;5085982;28;20142;-79
2024/01/15 02:23:16;;;;;;;21.17;5.00;;;;;;;-0.65;100.00;100220.84;5064757;28;20089;-76
2024/01/15 02:25:46;;;;;;;18.98;4.55;;;;;;;-0.68;100.00;100223.28;5086183;28;20036;-76
2024/01/15 02:28:17;;;;;;;19.42;4.32;;;;;;;-0.77;100.00;100218.63;5082962;28;20253;-77
2024/01/15 02:30:43;;;;;;;17.73;4.45;;;;;;;-0.85;100.00;100213.13;5085726;28;20051;-80
2024/01/15 02:33:09;;;;;;;19.75;4.53;;;;;;;-0.85;100.00;100215.72;5083587;28;20020;-76
2024/01/15 02:35:38;;;;;;;19.17;4.13;;;;;;;-0.82;100.00;100215.84;5084797;28;20033;-76
2024/01/15 02:38:05;;;;;;;18.95;3.90;;;;;;;-0.82;100.00;100217.56;5082540;28;20157;-80
2024/01/15 02:40:31;;;;;;;17.90;3.75;;;;;;;-0.85;100.00;100207.94;5083704;28;20060;-77
2024/01/15 02:42:56;;;;;;;17.42;3.50;;;;;;;-0.88;100.00;100213.00;5085001;28;20051;-75
2024/01/15 02:45:22;;;;;;;19.10;3.78;;;;;;;-0.92;100.00;100219.81;5082285;28;20120;-75
2024/01/15 02:47:48;;;;;;;18.48;3.60;;;;;;;-0.92;100.00;100209.41;5085602;28;20020;-76
2024/01/15 02:50:13;;;;;;;17.33;3.58;;;;;;;-0.95;100.00;100208.41;5082409;28;20434;-75
2024/01/15 02:52:39;;;;;;;19.00;4.00;;;;;;;-0.99;100.00;100211.69;5084630;28;20467;-75
2024/01/15 02:55:05;;;;;;;20.88;3.85;;;;;;;-1.03;100.00;100217.56;5083543;28;20032;-78
2024/01/15 02:57:30;;;;;;;16.48;3.88;;;;;;;-1.01;100.00;100208.16;5082181;28;20031;-75
2024/01/15 02:59:55;;;;;;;17.75;3.30;;;;;;;-1.04;100.00;100205.44;5083236;28;20036;-75
2024/01/15 03:02:21;;;;;;;20.25;3.25;;;;;;;-1.02;100.00;100208.97;5080675;28;20128;-76
2024/01/15 03:04:49;;;;;;;19.55;3.40;;;;;;;-0.99;100.00;100219.47;5084594;28;20081;-76
2024/01/15 03:07:15;;;;;;;18.55;3.60;;;;;;;-0.98;100.00;100221.25;5080620;28;20024;-75
2024/01/15 03:09:40;;;;;;;17.70;3.15;;;;;;;-0.96;100.00;100224.78;5084701;28;20039;-78
2024/01/15 03:12:06;;;;;;;19.02;3.58;;;;;;;-0.89;100.00;100232.00;5082942;28;20051;-76
2024/01/15 03:14:31;;;;;;;21.70;3.65;;;;;;;-0.94;100.00;100224.03;5083155;28;20039;-74
2024/01/15 03:16:57;;;;;;;16.88;3.30;;;;;;;-0.95;100.00;100221.38;5084219;28;20071;-74
2024/01/15 03:19:22;;;;;;;19.35;3.40;;;;;;;-0.93;100.00;100219.75;5081807;28;20040;-74
2024/01/15 03:21:47;;;;;;;17.45;3.45;;;;;;;-0.90;100.00;100220.72;5085201;28;20046;-75
2024/01/15 03:24:13;;;;;;;17.65;3.20;;;;;;;-0.93;100.00;100228.41;5081998;28;20032;-76
2024/01/15 03:26:39;;;;;;;18.75;3.90;;;;;;;-0.96;100.00;100212.72;5086310;28;20020;-82
2024/01/15 03:29:04;;;;;;;17.02;3.35;;;;;;;-1.00;100.00;100213.41;5082024;28;20024;-81
2024/01/15 03:31:30;;;;;;;19.75;3.97;;;;;;;-0.96;100.00;100210.13;5082118;28;20032;-81
2024/01/15 03:33:56;;;;;;;19.08;3.53;;;;;;;-0.94;100.00;100212.78;5085146;28;20028;-81
2024/01/15 03:36:22;;;;;;;21.30;3.50;;;;;;;-0.94;100.00;100208.44;5086230;28;20056;-80
2024/01/15 03:38:47;;;;;;;20.73;4.03;;;;;;;-0.92;100.00;100205.91;5082362;28;20052;-80
2024/01/15 03:41:13;;;;;;;19.52;3.88;;;;;;;-0.88;100.00;100219.06;5084951;28;20058;-81
2024/01/15 03:43:39;;;;;;;20.15;3.80;;;;;;;-0.82;100.00;100213.25;5083205;28;20036;-80
2024/01/15 03:46:04;;;;;;;22.90;3.70;;;;;;;-0.79;100.00;100209.91;5082446;28;20036;-81
2024/01/15 03:48:30;;;;;;;21.52;3.97;;;;;;;-0.74;100.00;100213.56;5084093;28;20021;-81
2024/01/15 03:50:55;;;;;;;20.73;3.92;;;;;;;-0.76;100.00;100207.41;5081887;28;20436;-80
2024/01/15 03:53:21;;;;;;;21.60;4.60;;;;;;;-0.67;100.00;100204.31;5081546;28;20426;-79
2024/01/15 03:55:46;;;;;;;19.45;4.13;;;;;;;-0.63;100.00;100199.28;5084742;28;20115;-81
2024/01/15 03:58:11;;;;;;;19.40;4.40;;;;;;;-0.61;100.00;100199.34;5082122;28;20037;-81
2024/01/15 04:00:37;;;;;;;21.05;4.15;;;;;;;-0.60;100.00;100195.94;5083297;28;20056;-83
2024/01/15 04:03:02;;;;;;;21.73;4.40;;;;;;;-0.57;100.00;100186.56;5083055;28;20028;-78
2024/01/15 04:05:27;;;;;;;20.20;3.95;;;;;;;-0.55;100.00;100179.72;5082285;28;20064;-79
2024/01/15 04:07:53;;;;;;;19.52;3.70;;;;;;;-0.54;100.00;100188.38;5084242;28;20031;-80
2024/01/15 04:10:18;;;;;;;22.58;4.10;;;;;;;-0.54;100.00;100189.28;5081048;28;20073;-81
2024/01/15 04:12:46;;;;;;;19.98;3.60;;;;;;;-0.49;100.00;100183.38;5084318;28;20029;-74
2024/01/15 04:15:12;;;;;;;22.95;3.78;;;;;;;-0.49;100.00;100171.28;5081717;28;20499;-75
2024/01/15 04:17:37;;;;;;;20.55;3.55;;;;;;;-0.46;100.00;100167.91;5087088;28;20055;-75
2024/01/15 04:20:03;;;;;;;20.02;3.58;;;;;;;-0.44;100.00;100177.50;5086953;28;20032;-79
2024/01/15 04:22:28;;;;;;;17.73;3.40;;;;;;;-0.47;100.00;100185.19;5086018;28;20035;-75
2024/01/15 04:24:54;;;;;;;18.95;3.58;;;;;;;-0.46;100.00;100171.38;5088680;28;20028;-79
2024/01/15 04:27:19;;;;;;;20.85;3.70;;;;;;;-0.48;100.00;100160.06;5088560;28;20028;-75
2024/01/15 04:29:44;;;;;;;18.40;3.50;;;;;;;-0.54;100.00;100162.41;5083772;28;20123;-78
2024/01/15 04:32:10;;;;;;;18.92;3.35;;;;;;;-0.51;100.00;100159.97;5087805;28;20063;-76
2024/01/15 04:34:35;;;;;;;20.58;3.17;;;;;;;-0.56;100.00;100170.13;5085146;28;20466;-78
2024/01/15 04:37:01;;;;;;;16.55;2.90;;;;;;;-0.51;100.00;100172.94;5085943;28;20057;-75
2024/01/15 04:39:26;;;;;;;17.75;3.25;;;;;;;-0.41;100.00;100164.66;5086423;28;20020;-76
2024/01/15 04:41:52;;;;;;;19.15;3.65;;;;;;;-0.43;100.00;100171.50;5084528;28;20041;-78
2024/01/15 04:44:18;;;;;;;15.98;3.40;;;;;;;-0.43;100.00;100170.63;5088177;28;20025;-75
2024/01/15 04:46:44;;;;;;;15.57;3.53;;;;;;;-0.56;100.00;100169.25;5084923;28;20108;-79
2024/01/15 04:49:11;;;;;;;15.18;3.47;;;;;;;-0.62;100.00;100156.06;5086896;28;20071;-77
2024/01/15 04:51:36;;;;;;;17.38;3.50;;;;;;;-0.63;100.00;100159.47;5085753;28;20036;-80
2024/01/15 04:54:01;;;;;;;11.25;2.97;;;;;;;-0.66;100.00;100146.38;5084776;28;20028;-79
2024/01/15 04:56:27;;;;;;;13.13;3.28;;;;;;;-0.76;100.00;100161.59;5087061;28;20056;-76
2024/01/15 04:58:52;;;;;;;12.98;3.38;;;;;;;-0.75;100.00;100155.56;5084432;28;20494;-75
2024/01/15 05:01:18;;;;;;;12.48;3.25;;;;;;;-0.81;100.00;100152.72;5087689;28;20056;-75
2024/01/15 05:03:43;;;;;;;13.07;3.20;;;;;;;-0.81;100.00;100146.66;5084928;28;20033;-75
2024/01/15 05:06:09;;;;;;;13.65;2.90;;;;;;;-0.75;100.00;100152.97;5085515;28;20035;-75
2024/01/15 05:08:34;;;;;;;11.45;2.80;;;;;;;-0.74;100.00;100157.34;5085825;28;20573;-76
2024/01/15 05:10:59;;;;;;;13.25;2.80;;;;;;;-0.69;100.00;100161.84;5085114;28;20021;-78
2024/01/15 05:13:25;;;;;;;12.60;2.90;;;;;;;-0.79;100.00;100145.00;5087518;28;20079;-79
2024/01/15 05:15:50;;;;;;;10.43;2.70;;;;;;;-0.88;100.00;100137.75;5084047;28;20467;-75
2024/01/15 05:18:16;;;;;;;8.55;2.50;;;;;;;-0.91;100.00;100141.09;5087137;28;20166;-75
2024/01/15 05:20:42;;;;;;;11.05;2.78;;;;;;;-0.94;100.00;100140.09;5084790;28;20054;-77
2024/01/15 05:23:07;;;;;;;15.20;2.80;;;;;;;-0.97;100.00;100140.00;5086045;28;20052;-75
2024/01/15 05:25:33;;;;;;;15.18;2.80;;;;;;;-1.04;100.00;100133.66;5085656;28;20032;-78
2024/01/15 05:27:58;;;;;;;16.42;3.53;;;;;;;-1.09;100.00;100125.69;5084094;28;20031;-77
2024/01/15 05:30:24;;;;;;;14.90;3.55;;;;;;;-1.04;100.00;100137.97;5086846;28;20027;-77
2024/01/15 05:32:49;;;;;;;17.10;4.00;;;;;;;-1.03;100.00;100125.06;5083635;28;20036;-75
2024/01/15 05:35:14;;;;;;;14.40;3.70;;;;;;;-0.99;100.00;100129.56;5085853;28;20111;-75
2024/01/15 05:37:47;;;;;;;17.10;4.03;;;;;;;-0.95;100.00;100131.41;5084354;28;20024;-77
2024/01/15 05:40:13;;;;;;;19.40;4.60;;;;;;;-0.89;100.00;100125.59;5086162;28;20086;-74
2024/01/15 05:42:39;;;;;;;18.85;4.70;;;;;;;-0.82;100.00;100130.19;5084816;28;20426;-74
2024/01/15 05:45:05;;;;;;;18.33;4.32;;;;;;;-0.77;100.00;100123.47;5085095;28;20021;-75
2024/01/15 05:47:30;;;;;;;19.98;4.40;;;;;;;-0.79;100.00;100127.72;5085599;28;20038;-75
2024/01/15 05:49:56;;;;;;;20.95;4.68;;;;;;;-0.80;100.00;100130.25;5083981;28;20040;-74
2024/01/15 05:52:22;;;;;;;20.35;4.53;;;;;;;-0.86;100.00;100130.88;5086697;28;20028;-75
2024/01/15 05:54:47;;;;;;;20.63;4.35;;;;;;;-0.91;100.00;100127.25;5079037;28;20063;-75
2024/01/15 05:57:13;;;;;;;19.13;4.00;;;;;;;-0.95;100.00;100122.75;5086160;28;20035;-75
2024/01/15 05:59:38;;;;;;;20.77;4.25;;;;;;;-0.95;100.00;100120.16;5084102;28;20348;-75
2024/01/15 06:02:04;;;;;;;21.45;4.43;;;;;;;-0.91;100.00;100129.84;5084701;28;20091;-76
2024/01/15 06:04:29;;;;;;;23.15;4.70;;;;;;;-0.86;100.00;100123.09;5085401;28;20036;-75
2024/01/15 06:06:54;;;;;;;19.75;5.03;;;;;;;-0.83;100.00;100123.25;5083460;28;20028;-74
2024/01/15 06:09:20;;;;;;;21.25;5.13;;;;;;;-0.83;100.00;100122.34;5086666;28;20432;-75
2024/01/15 06:11:45;;;;;;;21.15;5.20;;;;;;;-0.81;100.00;100115.53;5083236;28;20072;-74
2024/01/15 06:14:10;;;;;;;21.38;5.32;;;;;;;-0.79;100.00;100114.72;5085353;28;20039;-76
2024/01/15 06:16:36;;;;;;;19.40;5.53;;;;;;;-0.79;100.00;100108.66;5084750;28;20081;-74
2024/01/15 06:19:01;;;;;;;21.95;5.55;;;;;;;-0.77;100.00;100102.72;5083885;28;20032;-75
2024/01/15 06:21:26;;;;;;;19.33;5.68;;;;;;;-0.75;100.00;100105.38;5085545;28;20063;-75
2024/01/15 06:23:52;;;;;;;20.55;5.45;;;;;;;-0.75;100.00;100121.81;5082869;28;20490;-77
2024/01/15 06:26:17;;;;;;;20.85;5.30;;;;;;;-0.75;100.00;100114.03;5085981;28;20028;-75
2024/01/15 06:28:43;;;;;;;21.25;5.45;;;;;;;-0.70;100.00;100101.22;5083122;28;20035;-75
2024/01/15 06:31:08;;;;;;;21.48;5.03;;;;;;;-0.67;100.00;100103.97;5084783;28;20237;-74
2024/01/15 06:33:34;;;;;;;18.10;5.00;;;;;;;-0.65;100.00;100097.09;5084281;28;20023;-75
2024/01/15 06:35:59;;;;;;;20.67;5.10;;;;;;;-0.61;100.00;100100.69;5083769;28;20119;-75
2024/01/15 06:38:25;;;;;;;18.88;4.60;;;;;;;-0.61;100.00;100108.47;5085358;28;20048;-77
2024/01/15 06:40:51;;;;;;;16.13;4.40;;;;;;;-0.64;100.00;100105.75;5081285;28;20121;-74
2024/01/15 06:43:17;;;;;;;17.98;4.68;;;;;;;-0.65;100.00;100106.63;5084760;28;20087;-77
2024/01/15 06:45:43;;;;;;;18.38;4.53;;;;;;;-0.72;100.00;100105.47;5081657;28;20116;-75
2024/01/15 06:48:08;;;;;;;19.25;4.82;;;;;;;-0.87;100.00;100110.97;5084345;28;20024;-74
2024/01/15 06:50:34;;;;;;;23.88;5.18;;;;;;;-1.05;100.00;100098.16;5084124;28;20024;-74
2024/01/15 06:52:59;;;;;;;19.83;4.75;;;;;;;-1.07;100.00;100107.59;5082873;28;20020;-74
2024/01/15 06:55:25;;;;;;;20.40;5.10;;;;;;;-1.11;100.00;100111.75;5083859;28;20063;-74
2024/01/15 06:57:51;;;;;;;17.55;5.07;;;;;;;-1.13;100.00;100104.75;5080894;28;20052;-80
2024/01/15 07:00:17;;;;;;;17.10;4.95;;;;;;;-1.16;100.00;100105.53;5085100;28;20032;-84
2024/01/15 07:02:43;;;;;;;19.58;5.30;;;;;;;-1.14;100.00;100108.19;5082701;28;20156;-84
2024/01/15 07:05:08;;;;;;;18.30;5.13;;;;;;;-1.14;100.00;100109.06;5086291;28;20059;-85
2024/01/15 07:07:34;;;;;;;17.63;5.00;;;;;;;-1.14;100.00;100106.47;5082182;28;20090;-83
2024/01/15 07:09:59;;;;;;;19.33;5.28;;;;;;;-1.14;100.00;100106.47;5083504;28;20036;-82
2024/01/15 07:12:24;;;;;;;18.48;5.57;;;;;;;-1.14;100.00;100106.47;5082463;28;20034;-76
2024/01/15 07:14:50;;;;;;;19.95;5.72;;;;;;;-1.18;100.00;100107.19;5083979;28;20457;-75
2024/01/15 07:17:15;;;;;;;19.20;5.90;;;;;;;-1.20;100.00;100111.41;5082380;28;20025;-74
2024/01/15 07:19:41;;;;;;;21.00;6.68;;;;;;;-1.21;100.00;100109.63;5083970;28;20475;-76
2024/01/15 07:22:06;;;;;;;21.55;6.38;;;;;;;-1.21;100.00;100112.22;5083195;28;20074;-78
2024/01/15 07:24:34;;;;;;;24.17;6.90;;;;;;;-1.22;100.00;100100.09;5082811;28;20035;-85
2024/01/15 07:26:59;;;;;;;21.55;7.38;;;;;;;-1.22;100.00;100113.06;5084967;28;20047;-86
2024/01/15 07:29:24;;;;;;;19.85;6.88;;;;;;;-1.20;100.00;100105.34;5084987;28;20032;-74
2024/01/15 07:31:51;;;;;;;20.95;7.22;;;;;;;-1.18;100.00;100104.59;5081522;28;20143;-75
2024/01/15 07:34:17;;;;;;;21.77;7.05;;;;;;;-1.18;100.00;100108.88;5084459;28;20067;-77
2024/01/15 07:36:44;;;;;;;21.38;7.38;;;;;;;-1.16;100.00;100110.72;5081977;28;20501;-75
2024/01/15 07:39:09;;;;;;;21.15;7.55;;;;;;;-1.14;100.00;100110.78;5083632;28;20032;-75
2024/01/15 07:41:35;;;;;;;20.95;7.72;;;;;;;-1.13;100.00;100109.97;5082928;28;20481;-85
2024/01/15 07:44:00;;;;;;;21.98;8.10;;;;;;;-1.14;100.00;100109.06;5082365;28;20078;-77
2024/01/15 07:46:25;;;;;;;21.50;7.88;;;;;;;-1.02;100.00;100116.47;5084716;28;20050;-75
2024/01/15 07:48:56;;;;;;;22.75;9.63;;;;;;;-1.04;100.00;100112.03;5081452;28;20033;-75
2024/01/15 07:51:22;;;;;;;22.67;9.30;;;;;;;-1.00;100.00;100114.78;5077162;28;20021;-76
2024/01/15 07:53:47;;;;;;;23.50;10.63;;;;;;;-0.99;100.00;100110.47;5083911;28;20429;-74
2024/01/15 07:56:13;;;;;;;24.45;10.57;;;;;;;-0.97;100.00;100127.88;5082020;28;20032;-74
2024/01/15 07:58:38;;;;;;;23.60;10.50;;;;;;;-1.01;100.00;100131.19;5083315;28;20021;-74
2024/01/15 08:01:04;;;;;;;24.13;11.30;;;;;;;-0.94;100.00;100132.31;5081698;28;20091;-74
2024/01/15 08:03:31;;;;;;;23.50;11.23;;;;;;;-0.98;100.00;100127.84;5080988;28;20048;-74
2024/01/15 08:05:57;;;;;;;24.95;13.13;;;;;;;-0.94;100.00;100132.31;5083978;28;20430;-74
2024/01/15 08:08:23;;;;;;;25.30;12.90;;;;;;;-0.92;100.00;100128.06;5081179;28;20028;-74
2024/01/15 08:10:49;;;;;;;23.50;11.65;;;;;;;-0.81;100.00;100136.28;5084301;28;20035;-74
2024/01/15 08:13:14;;;;;;;25.65;13.07;;;;;;;-0.88;100.00;100145.53;5081466;28;20044;-74
2024/01/15 08:15:41;;;;;;;25.33;13.13;;;;;;;-0.88;100.00;100150.72;5082041;28;20024;-76
2024/01/15 08:18:06;;;;;;;24.10;12.15;;;;;;;-0.84;100.00;100147.44;5081109;28;20055;-76
2024/01/15 08:20:32;;;;;;;24.50;12.05;;;;;;;-0.88;100.00;100143.81;5081943;28;20067;-75
2024/01/15 08:22:57;;;;;;;24.73;11.45;;;;;;;-0.86;100.00;100150.78;5082616;28;20036;-75
2024/01/15 08:25:23;;;;;;;23.83;11.05;;;;;;;-0.77;100.00;100143.34;5079538;28;20061;-76
2024/01/15 08:27:48;;;;;;;23.80;11.05;;;;;;;-0.83;100.00;100146.63;5084826;28;20032;-84
2024/01/15 08:30:14;;;;;;;24.80;11.38;;;;;;;-0.87;100.00;100149.91;5082745;28;20058;-91
2024/01/15 08:32:42;;;;;;;23.92;11.43;;;;;;;-0.83;100.00;100146.63;5084195;28;20025;-77
2024/01/15 08:35:08;;;;;;;22.75;11.25;;;;;;;-0.80;100.00;100151.91;5082732;28;20024;-86
2024/01/15 08:37:34;;;;;;;23.30;10.88;;;;;;;-0.76;100.00;100159.00;5082297;28;20476;-75
2024/01/15 08:39:59;;;;;;;22.65;10.50;;;;;;;-0.71;100.00;100152.25;5083647;28;20078;-76
2024/01/15 08:42:24;;;;;;;21.40;9.93;;;;;;;-0.72;100.00;100154.81;5062976;28;20055;-76
2024/01/15 08:44:50;;;;;;;21.80;9.80;;;;;;;-0.77;100.00;100152.03;5084546;28;20388;-75
2024/01/15 08:47:16;;;;;;;20.63;8.98;;;;;;;-0.80;100.00;100144.13;5081428;28;20045;-75
2024/01/15 08:49:43;;;;;;;21.05;8.13;;;;;;;-0.82;100.00;100144.88;5083430;28;20373;-75
2024/01/15 08:52:08;;;;;;;19.75;7.35;;;;;;;-0.82;100.00;100150.09;5080992;28;20024;-76
2024/01/15 08:54:34;;;;;;;18.90;6.60;;;;;;;-0.74;100.00;100157.34;5084154;28;20150;-90
2024/01/15 08:56:59;;;;;;;17.83;5.07;;;;;;;-0.66;100.00;100143.78;5082318;28;20024;-90
2024/01/15 08:59:25;;;;;;;16.63;4.82;;;;;;;-0.68;100.00;100148.00;5084785;28;20054;-81
2024/01/15 09:01:52;;;;;;;17.17;4.53;;;;;;;-0.68;100.00;100148.00;5080726;28;20063;-90
2024/01/15 09:04:18;;;;;;;17.40;4.43;;;;;;;-0.62;100.00;100151.72;5085304;28;20368;-86
2024/01/15 09:06:46;;;;;;;17.50;4.30;;;;;;;-0.58;100.00;100155.34;5085313;28;20028;-87
2024/01/15 09:09:13;;;;;;;18.58;4.50;;;;;;;-0.56;100.00;100149.38;5085688;28;20086;-84
2024/01/15 09:11:38;;;;;;;16.85;4.15;;;;;;;-0.57;100.00;100141.53;5084726;28;20032;-87
2024/01/15 09:14:03;;;;;;;16.10;3.10;;;;;;;-0.56;100.00;100138.97;5085593;28;20369;-89
2024/01/15 09:16:29;;;;;;;14.90;2.90;;;;;;;-0.54;100.00;100136.44;5087043;28;20028;-89
2024/01/15 09:18:57;;;;;;;12.80;2.70;;;;;;;-0.42;100.00;100139.50;5084468;28;20039;-87
2024/01/15 09:21:23;;;;;;;12.25;2.53;;;;;;;-0.51;100.00;100166.84;5080559;28;20378;-86
2024/01/15 09:23:49;;;;;;;10.38;2.50;;;;;;;-0.42;100.00;100157.69;5087683;28;20112;-86
2024/01/15 09:26:15;;;;;;;13.07;2.60;;;;;;;-0.49;100.00;100149.63;5085527;28;20060;-85
2024/01/15 09:28:40;;;;;;;13.95;2.67;;;;;;;-0.50;100.00;100153.91;5085069;28;20032;-84
2024/01/15 09:31:06;;;;;;;12.00;2.80;;;;;;;-0.38;100.00;100151.78;5086378;28;20028;-86
2024/01/15 09:33:31;;;;;;;13.93;3.05;;;;;;;-0.45;100.00;100148.88;5084952;28;20025;-84
2024/01/15 09:35:56;;;;;;;9.65;2.70;;;;;;;-0.38;100.00;100149.19;5087323;28;20036;-75
2024/01/15 09:38:23;;;;;;;16.13;3.40;;;;;;;-0.45;100.00;100147.19;5084056;28;20034;-77
2024/01/15 09:40:49;;;;;;;12.18;3.40;;;;;;;-0.49;100.00;100140.09;5087225;28;20378;-87
2024/01/15 09:43:15;;;;;;;15.07;3.67;;;;;;;-0.55;100.00;100145.06;5084808;28;20043;-84
2024/01/15 09:45:42;;;;;;;16.90;4.43;;;;;;;-0.54;100.00;100154.63;5086199;28;20028;-78
2024/01/15 09:48:08;;;;;;;15.32;3.35;;;;;;;-0.44;100.00;100151.53;5085060;28;20032;-75
2024/01/15 09:50:34;;;;;;;12.32;3.22;;;;;;;-0.36;100.00;100168.31;5084363;28;20029;-76
2024/01/15 09:52:59;;;;;;;11.48;3.42;;;;;;;-0.45;100.00;100165.38;5086248;28;20078;-75
2024/01/15 09:55:26;;;;;;;15.60;3.60;;;;;;;-0.35;100.00;100169.19;5083171;28;20062;-75
2024/01/15 09:57:53;;;;;;;16.90;3.53;;;;;;;-0.39;100.00;100178.59;5086640;28;20532;-74
2024/01/15 10:00:19;;;;;;;16.55;3.90;;;;;;;-0.49;100.00;100160.88;5082017;28;20040;-76
2024/01/15 10:02:45;;;;;;;17.65;4.20;;;;;;;-0.47;100.00;100177.41;5084549;28;20021;-74
2024/01/15 10:05:10;;;;;;;17.83;4.05;;;;;;;-0.46;100.00;100180.91;5084414;28;20073;-75
2024/01/15 10:07:37;;;;;;;16.92;4.40;;;;;;;-0.54;100.00;100173.69;5084740;28;20028;-75
2024/01/15 10:10:03;;;;;;;17.35;4.70;;;;;;;0.06;100.00;100179.34;5070809;28;20031;-78
2024/01/15 10:12:29;;;;;;;17.52;5.25;;;;;;;0.65;100.00;100177.06;5083036;28;20036;-80
2024/01/15 10:14:56;;;;;;;17.50;4.75;;;;;;;0.95;100.00;100178.94;5086380;28;20032;-75
2024/01/15 10:17:21;;;;;;;15.43;4.30;;;;;;;0.95;100.00;100174.59;5078789;28;20029;-75
2024/01/15 10:19:47;;;;;;;15.73;3.97;;;;;;;1.21;100.00;100166.75;5085338;28;20031;-75
2024/01/15 10:22:14;;;;;;;14.95;3.63;;;;;;;1.65;100.00;100162.00;5084245;28;20032;-77
2024/01/15 10:24:40;;;;;;;13.98;3.40;;;;;;;2.14;100.00;100154.69;5083269;28;20064;-76
2024/01/15 10:27:10;;;;;;;15.48;3.47;;;;;;;2.40;100.00;100158.00;5080569;28;20071;-76
2024/01/15 10:29:36;;;;;;;14.48;3.40;;;;;;;2.51;100.00;100154.81;5077332;28;20029;-79
2024/01/15 10:32:02;;;;;;;14.48;3.10;;;;;;;2.89;100.00;100153.13;5084052;28;20043;-76
2024/01/15 10:34:28;;;;;;;12.27;3.00;;;;;;;3.00;100.00;100152.50;5081892;28;20040;-75
2024/01/15 10:36:57;;;;;;;14.48;3.22;;;;;;;2.74;100.00;100127.56;5082911;28;20443;-76
2024/01/15 10:39:23;;;;;;;13.40;3.20;;;;;;;2.53;100.00;100147.88;5085247;28;20028;-78
2024/01/15 10:41:49;;;;;;;14.55;3.35;;;;;;;1.90;100.00;100142.72;5082334;28;20036;-79
2024/01/15 10:44:14;;;;;;;12.27;3.00;;;;;;;1.38;100.00;100156.84;5083259;28;20028;-79
2024/01/15 10:46:40;;;;;;;13.07;2.95;;;;;;;2.11;100.00;100140.69;5083733;28;20544;-79
2024/01/15 10:49:06;;;;;;;12.73;2.90;;;;;;;2.75;100.00;100142.38;5081538;28;20024;-79
2024/01/15 10:51:32;;;;;;;9.43;2.92;;;;;;;3.51;100.00;100119.69;5068186;28;20256;-79
2024/01/15 10:53:59;;;;;;;9.93;2.80;;;;;;;4.20;100.00;100139.41;5082193;28;20036;-77
2024/01/15 10:56:25;;;;;;;12.38;2.80;;;;;;;3.75;100.00;100133.28;5085681;28;20027;-79
2024/01/15 10:58:52;;;;;;;12.75;2.80;;;;;;;2.86;100.00;100136.53;5083438;28;20028;-79
2024/01/15 11:01:19;;;;;;;10.88;2.60;;;;;;;2.45;100.00;100139.88;5084097;28;20060;-79
2024/01/15 11:03:45;;;;;;;11.45;2.60;;;;;;;2.39;100.00;100132.75;5083866;28;20028;-79